createdAt,value
2018-02-14T00:01:33.274Z,4.97
2018-02-14T00:04:03.199Z,4.70
2018-02-14T00:06:33.358Z,4.70
2018-02-14T00:09:02.757Z,7.20
2018-02-14T00:11:32.148Z,7.30
2018-02-14T00:14:02.321Z,5.00
2018-02-14T00:16:31.708Z,4.70
2018-02-14T00:19:01.559Z,4.20
2018-02-14T00:21:30.947Z,7.33
2018-02-14T00:24:01.119Z,5.27
2018-02-14T00:26:30.522Z,5.33
2018-02-14T00:28:59.931Z,5.10
2018-02-14T00:31:29.053Z,6.07
2018-02-14T00:33:58.465Z,7.17
2018-02-14T00:36:27.876Z,6.63
2018-02-14T00:38:57.284Z,5.20
2018-02-14T00:41:26.681Z,6.07
2018-02-14T00:43:56.083Z,5.70
2018-02-14T00:46:26.248Z,6.70
2018-02-14T00:48:55.652Z,6.33
2018-02-14T00:51:25.060Z,4.83
2018-02-14T00:53:54.497Z,5.80
2018-02-14T00:56:23.887Z,4.50
2018-02-14T00:58:53.330Z,4.63
2018-02-14T01:01:22.741Z,5.03
2018-02-14T01:03:52.880Z,4.93
2018-02-14T01:06:22.283Z,5.07
2018-02-14T01:08:51.392Z,4.80
2018-02-14T01:11:20.522Z,6.27
2018-02-14T01:13:49.655Z,5.43
2018-02-14T01:16:19.109Z,5.40
2018-02-14T01:18:48.495Z,5.00
2018-02-14T01:21:18.700Z,4.43
2018-02-14T01:23:48.100Z,4.87
2018-02-14T01:26:17.507Z,5.97
2018-02-14T01:28:46.908Z,5.17
2018-02-14T01:31:16.320Z,4.63
2018-02-14T01:33:45.744Z,4.93
2018-02-14T01:36:15.135Z,6.63
2018-02-14T01:38:45.344Z,5.77
2018-02-14T01:41:14.733Z,6.07
2018-02-14T01:43:43.868Z,5.40
2018-02-14T01:46:13.262Z,4.63
2018-02-14T01:48:42.479Z,5.27
2018-02-14T01:51:11.883Z,6.87
2018-02-14T01:53:41.294Z,4.77
2018-02-14T01:56:10.400Z,5.67
2018-02-14T01:58:39.807Z,6.80
2018-02-14T02:01:09.204Z,4.67
2018-02-14T02:03:38.599Z,5.00
2018-02-14T02:06:07.999Z,6.67
2018-02-14T02:08:37.148Z,5.20
2018-02-14T02:11:06.555Z,5.30
2018-02-14T02:13:35.691Z,5.97
2018-02-14T02:16:04.747Z,5.10
2018-02-14T02:18:33.880Z,6.80
2018-02-14T02:21:02.997Z,5.10
2018-02-14T02:23:32.387Z,5.13
2018-02-14T02:26:01.783Z,5.37
2018-02-14T02:28:30.916Z,5.73
2018-02-14T02:31:00.327Z,7.80
2018-02-14T02:33:29.720Z,5.27
2018-02-14T02:35:59.892Z,6.53
2018-02-14T02:38:29.029Z,5.83
2018-02-14T02:40:58.136Z,6.30
2018-02-14T02:43:27.551Z,5.10
2018-02-14T02:45:56.948Z,7.10
2018-02-14T02:48:26.357Z,7.03
2018-02-14T02:50:55.766Z,5.97
2018-02-14T02:53:24.896Z,9.67
2018-02-14T02:55:54.301Z,5.77
2018-02-14T02:58:23.700Z,7.53
2018-02-14T03:00:53.109Z,7.37
2018-02-14T03:03:22.510Z,5.27
2018-02-14T03:05:52.652Z,5.30
2018-02-14T03:08:22.052Z,6.87
2018-02-14T03:10:52.220Z,5.37
2018-02-14T03:13:21.376Z,5.77
2018-02-14T03:15:50.768Z,6.07
2018-02-14T03:18:20.683Z,6.30
2018-02-14T03:20:50.085Z,7.33
2018-02-14T03:23:19.209Z,4.83
2018-02-14T03:25:48.615Z,8.23
2018-02-14T03:28:18.039Z,6.50
2018-02-14T03:30:47.438Z,6.17
2018-02-14T03:33:16.842Z,8.73
2018-02-14T03:35:46.240Z,7.83
2018-02-14T03:38:15.642Z,8.13
2018-02-14T03:40:46.015Z,8.43
2018-02-14T03:43:15.695Z,5.53
2018-02-14T03:45:45.671Z,6.07
2018-02-14T03:48:15.084Z,5.67
2018-02-14T03:50:44.478Z,6.83
2018-02-14T03:53:13.927Z,7.30
2018-02-14T03:55:43.031Z,6.93
2018-02-14T03:58:12.423Z,7.00
2018-02-14T04:00:41.812Z,6.07
2018-02-14T04:03:11.972Z,5.40
2018-02-14T04:05:41.372Z,6.77
2018-02-14T04:08:10.776Z,6.23
2018-02-14T04:10:40.983Z,6.03
2018-02-14T04:13:10.548Z,7.50
2018-02-14T04:15:39.970Z,7.23
2018-02-14T04:18:10.128Z,8.47
2018-02-14T04:20:39.531Z,6.17
2018-02-14T04:23:08.744Z,7.87
2018-02-14T04:25:38.163Z,7.00
2018-02-14T04:28:23.015Z,6.43
2018-02-14T04:30:52.234Z,5.90
2018-02-14T04:33:21.632Z,6.90
2018-02-14T04:35:51.067Z,8.57
2018-02-14T04:38:20.206Z,6.33
2018-02-14T04:40:49.612Z,6.27
2018-02-14T04:43:19.031Z,6.70
2018-02-14T04:45:48.431Z,7.67
2018-02-14T04:48:17.852Z,8.13
2018-02-14T04:50:47.820Z,12.33
2018-02-14T04:53:18.020Z,7.00
2018-02-14T04:55:47.435Z,7.73
2018-02-14T04:58:16.860Z,8.77
2018-02-14T05:00:46.272Z,7.60
2018-02-14T05:03:17.248Z,10.27
2018-02-14T05:05:47.415Z,9.73
2018-02-14T05:08:16.844Z,8.20
2018-02-14T05:10:46.227Z,7.77
2018-02-14T05:13:15.633Z,8.07
2018-02-14T05:15:45.071Z,6.90
2018-02-14T05:18:14.485Z,8.90
2018-02-14T05:20:43.925Z,9.83
2018-02-14T05:23:14.473Z,7.67
2018-02-14T05:25:43.880Z,7.63
2018-02-14T05:28:13.274Z,9.33
2018-02-14T05:30:42.389Z,7.20
2018-02-14T05:33:11.786Z,6.77
2018-02-14T05:35:41.210Z,9.13
2018-02-14T05:38:10.634Z,9.17
2018-02-14T05:40:40.062Z,8.40
2018-02-14T05:43:09.455Z,9.40
2018-02-14T05:45:38.576Z,8.63
2018-02-14T05:48:08.004Z,8.40
2018-02-14T05:50:37.511Z,8.33
2018-02-14T05:53:06.917Z,8.10
2018-02-14T05:55:36.340Z,6.80
2018-02-14T05:58:05.548Z,9.40
2018-02-14T06:00:34.978Z,8.37
2018-02-14T06:03:04.381Z,10.23
2018-02-14T06:05:33.797Z,9.80
2018-02-14T06:08:03.396Z,8.93
2018-02-14T06:10:33.593Z,9.57
2018-02-14T06:13:03.028Z,11.03
2018-02-14T06:15:32.424Z,9.60
2018-02-14T06:18:01.845Z,9.33
2018-02-14T06:20:31.267Z,10.50
2018-02-14T06:23:00.677Z,9.40
2018-02-14T06:25:30.106Z,9.47
2018-02-14T06:27:59.520Z,8.10
2018-02-14T06:30:29.707Z,9.43
2018-02-14T06:32:59.115Z,11.87
2018-02-14T06:35:28.602Z,10.00
2018-02-14T06:37:58.834Z,8.23
2018-02-14T06:40:29.001Z,10.00
2018-02-14T06:42:59.396Z,10.03
2018-02-14T06:45:29.576Z,8.80
2018-02-14T06:47:59.056Z,8.50
2018-02-14T06:50:28.484Z,10.97
2018-02-14T06:52:57.884Z,9.60
2018-02-14T06:55:27.298Z,8.27
2018-02-14T06:57:57.463Z,9.97
2018-02-14T07:00:26.892Z,11.40
2018-02-14T07:02:56.292Z,8.87
2018-02-14T07:05:25.716Z,9.93
2018-02-14T07:07:54.925Z,13.17
2018-02-14T07:10:24.129Z,9.93
2018-02-14T07:12:53.533Z,10.13
2018-02-14T07:15:22.949Z,12.57
2018-02-14T07:17:52.416Z,9.87
2018-02-14T07:20:21.820Z,10.37
2018-02-14T07:22:51.230Z,11.27
2018-02-14T07:25:20.668Z,9.03
2018-02-14T07:27:50.118Z,9.53
2018-02-14T07:30:20.358Z,9.73
2018-02-14T07:32:49.763Z,9.37
2018-02-14T07:35:19.944Z,9.33
2018-02-14T07:37:49.371Z,9.60
2018-02-14T07:40:18.864Z,11.60
2018-02-14T07:42:48.373Z,9.67
2018-02-14T07:45:18.061Z,11.57
2018-02-14T07:47:47.712Z,10.90
2018-02-14T07:50:17.117Z,9.63
2018-02-14T07:52:46.667Z,9.90
2018-02-14T07:55:16.370Z,10.17
2018-02-14T07:57:46.802Z,11.90
2018-02-14T08:00:16.995Z,11.73
2018-02-14T08:02:46.400Z,8.97
2018-02-14T08:05:15.967Z,12.20
2018-02-14T08:07:45.388Z,9.00
2018-02-14T08:10:15.130Z,12.13
2018-02-14T08:12:44.546Z,10.07
2018-02-14T08:15:13.964Z,9.80
2018-02-14T08:17:44.504Z,9.97
2018-02-14T08:20:13.938Z,9.00
2018-02-14T08:22:43.927Z,9.50
2018-02-14T08:25:13.360Z,10.10
2018-02-14T08:27:42.756Z,10.23
2018-02-14T08:30:11.511Z,9.80
2018-02-14T08:32:40.944Z,11.23
2018-02-14T08:35:11.309Z,12.00
2018-02-14T08:37:40.740Z,11.33
2018-02-14T08:40:10.145Z,10.80
2018-02-14T08:42:39.551Z,8.90
2018-02-14T08:45:08.972Z,8.53
2018-02-14T08:47:38.445Z,8.80
2018-02-14T08:50:08.661Z,9.50
2018-02-14T08:52:39.584Z,11.90
2018-02-14T08:55:09.004Z,10.07
2018-02-14T08:57:38.506Z,9.70
2018-02-14T09:00:08.136Z,9.83
2018-02-14T09:02:37.543Z,9.40
2018-02-14T09:05:06.984Z,9.90
2018-02-14T09:07:36.582Z,9.03
2018-02-14T09:10:06.027Z,9.20
2018-02-14T09:12:35.524Z,11.77
2018-02-14T09:15:04.616Z,10.37
2018-02-14T09:17:34.020Z,10.40
2018-02-14T09:20:03.108Z,11.00
2018-02-14T09:22:32.241Z,9.20
2018-02-14T09:25:01.694Z,8.83
2018-02-14T09:27:31.271Z,10.33
2018-02-14T09:30:00.769Z,10.00
2018-02-14T09:32:30.205Z,10.33
2018-02-14T09:34:59.813Z,10.00
2018-02-14T09:37:30.017Z,9.37
2018-02-14T09:39:59.691Z,10.50
2018-02-14T09:42:29.120Z,8.87
2018-02-14T09:44:58.500Z,9.43
2018-02-14T09:47:28.812Z,11.93
2018-02-14T09:49:58.219Z,10.90
2018-02-14T09:52:27.639Z,9.73
2018-02-14T09:54:57.052Z,10.33
2018-02-14T09:57:26.517Z,8.60
2018-02-14T09:59:55.911Z,10.23
2018-02-14T10:02:26.301Z,9.57
2018-02-14T10:04:55.705Z,8.83
2018-02-14T10:07:25.112Z,8.83
2018-02-14T10:09:54.520Z,9.20
2018-02-14T10:12:23.913Z,8.40
2018-02-14T10:14:53.320Z,8.00
2018-02-14T10:17:23.486Z,9.43
2018-02-14T10:19:52.880Z,9.67
2018-02-14T10:22:22.288Z,11.70
2018-02-14T10:24:51.676Z,9.77
2018-02-14T10:27:21.860Z,8.70
2018-02-14T10:29:51.268Z,10.60
2018-02-14T10:32:20.686Z,8.70
2018-02-14T10:34:50.078Z,9.43
2018-02-14T10:37:20.076Z,10.27
2018-02-14T10:39:49.484Z,9.20
2018-02-14T10:42:18.927Z,8.63
2018-02-14T10:44:49.111Z,8.67
2018-02-14T10:47:18.505Z,8.67
2018-02-14T10:49:47.929Z,9.50
2018-02-14T10:52:17.321Z,11.53
2018-02-14T10:54:46.746Z,9.10
2018-02-14T10:57:16.240Z,9.57
2018-02-14T10:59:46.451Z,9.23
2018-02-14T11:02:15.859Z,8.70
2018-02-14T11:04:50.796Z,9.23
2018-02-14T11:07:20.226Z,8.57
2018-02-14T11:09:49.841Z,9.70
2018-02-14T11:12:19.244Z,8.63
2018-02-14T11:14:48.663Z,9.60
2018-02-14T11:17:18.083Z,7.87
2018-02-14T11:19:47.508Z,8.83
2018-02-14T11:22:16.604Z,8.57
2018-02-14T11:24:46.029Z,9.00
2018-02-14T11:27:15.452Z,8.20
2018-02-14T11:29:44.870Z,9.07
2018-02-14T11:32:14.473Z,8.00
2018-02-14T11:34:43.885Z,10.13
2018-02-14T11:37:13.290Z,8.80
2018-02-14T11:39:42.696Z,7.93
2018-02-14T11:42:12.104Z,11.23
2018-02-14T11:44:41.521Z,10.50
2018-02-14T11:47:10.931Z,9.13
2018-02-14T11:49:40.351Z,8.87
2018-02-14T11:52:09.756Z,8.67
2018-02-14T11:54:39.175Z,8.17
2018-02-14T11:57:08.591Z,7.73
2018-02-14T11:59:38.002Z,8.07
2018-02-14T12:02:07.390Z,9.77
2018-02-14T12:04:36.801Z,7.83
2018-02-14T12:07:06.965Z,7.50
2018-02-14T12:09:36.377Z,8.47
2018-02-14T12:12:05.771Z,10.03
2018-02-14T12:14:34.907Z,10.77
2018-02-14T12:17:04.315Z,8.80
2018-02-14T12:19:33.753Z,8.77
2018-02-14T12:22:03.156Z,6.77
2018-02-14T12:24:32.564Z,7.50
2018-02-14T12:27:01.970Z,7.27
2018-02-14T12:29:31.365Z,8.17
2018-02-14T12:32:00.772Z,8.03
2018-02-14T12:34:30.961Z,7.40
2018-02-14T12:37:00.368Z,7.70
2018-02-14T12:39:29.799Z,7.37
2018-02-14T12:41:59.204Z,10.77
2018-02-14T12:44:28.603Z,7.90
2018-02-14T12:46:58.010Z,10.00
2018-02-14T12:49:27.451Z,11.10
2018-02-14T12:51:56.856Z,11.60
2018-02-14T12:54:26.288Z,8.23
2018-02-14T12:56:55.692Z,10.63
2018-02-14T12:59:26.725Z,7.10
2018-02-14T13:01:56.858Z,6.30
2018-02-14T13:04:27.839Z,7.73
2018-02-14T13:06:58.170Z,7.23
2018-02-14T13:09:31.175Z,8.63
2018-02-14T13:12:01.228Z,9.37
2018-02-14T13:14:31.430Z,8.97
2018-02-14T13:17:01.487Z,10.70
2018-02-14T13:19:31.047Z,9.80
2018-02-14T13:22:00.472Z,9.97
2018-02-14T13:24:29.867Z,10.20
2018-02-14T13:26:59.609Z,10.20
2018-02-14T13:29:28.999Z,8.17
2018-02-14T13:31:58.433Z,7.43
2018-02-14T13:34:28.282Z,7.90
2018-02-14T13:36:57.703Z,10.43
2018-02-14T13:39:27.119Z,9.53
2018-02-14T13:41:56.525Z,10.20
2018-02-14T13:44:26.023Z,8.97
2018-02-14T13:46:55.392Z,9.73
2018-02-14T13:49:25.602Z,10.23
2018-02-14T13:51:56.520Z,8.37
2018-02-14T13:54:26.012Z,7.87
2018-02-14T13:56:56.163Z,8.57
2018-02-14T13:59:25.557Z,10.27
2018-02-14T14:01:54.970Z,8.13
2018-02-14T14:04:25.537Z,7.03
2018-02-14T14:06:54.945Z,10.50
2018-02-14T14:09:24.337Z,8.97
2018-02-14T14:11:53.448Z,9.10
2018-02-14T14:14:22.852Z,7.80
2018-02-14T14:16:53.011Z,7.87
2018-02-14T14:19:22.431Z,7.23
2018-02-14T14:21:52.017Z,8.07
2018-02-14T14:24:22.186Z,8.53
2018-02-14T14:26:51.677Z,9.20
2018-02-14T14:29:21.847Z,6.60
2018-02-14T14:31:51.272Z,10.13
2018-02-14T14:34:20.688Z,8.23
2018-02-14T14:36:50.120Z,10.47
2018-02-14T14:39:19.528Z,11.87
2018-02-14T14:41:48.934Z,7.33
2018-02-14T14:44:18.350Z,8.30
2018-02-14T14:46:47.762Z,8.23
2018-02-14T14:49:17.167Z,8.93
2018-02-14T14:51:47.314Z,8.30
2018-02-14T14:54:16.737Z,9.77
2018-02-14T14:56:46.150Z,9.10
2018-02-14T14:59:15.562Z,8.83
2018-02-14T15:01:44.987Z,7.47
2018-02-14T15:04:14.383Z,8.93
2018-02-14T15:06:43.790Z,7.67
2018-02-14T15:09:13.192Z,8.20
2018-02-14T15:11:42.608Z,9.47
2018-02-14T15:14:12.018Z,7.93
2018-02-14T15:16:41.432Z,9.40
2018-02-14T15:19:10.952Z,10.93
2018-02-14T15:21:40.384Z,7.90
2018-02-14T15:24:09.801Z,9.60
2018-02-14T15:26:39.184Z,8.00
2018-02-14T15:29:08.636Z,8.43
2018-02-14T15:31:38.037Z,8.97
2018-02-14T15:34:07.485Z,8.47
2018-02-14T15:36:36.877Z,9.13
2018-02-14T15:39:05.961Z,9.53
2018-02-14T15:41:35.372Z,10.57
2018-02-14T15:44:04.776Z,10.03
2018-02-14T15:46:34.957Z,11.07
2018-02-14T15:49:04.359Z,8.80
2018-02-14T15:51:33.769Z,9.97
2018-02-14T15:54:03.164Z,9.83
2018-02-14T15:56:32.583Z,10.50
2018-02-14T15:59:01.981Z,8.90
2018-02-14T16:01:32.172Z,11.80
2018-02-14T16:04:01.566Z,8.50
2018-02-14T16:06:30.982Z,11.53
2018-02-14T16:09:00.392Z,8.63
2018-02-14T16:11:29.807Z,9.50
2018-02-14T16:13:59.204Z,9.40
2018-02-14T16:16:28.629Z,9.70
2018-02-14T16:18:58.033Z,9.83
2018-02-14T16:21:27.436Z,9.07
2018-02-14T16:23:57.632Z,10.40
2018-02-14T16:26:27.061Z,8.90
2018-02-14T16:28:56.476Z,9.07
2018-02-14T16:31:25.884Z,8.97
2018-02-14T16:33:55.275Z,7.47
2018-02-14T16:36:24.676Z,7.50
2018-02-14T16:38:54.110Z,8.47
2018-02-14T16:41:23.232Z,9.03
2018-02-14T16:43:52.628Z,7.77
2018-02-14T16:46:22.066Z,11.87
2018-02-14T16:48:51.464Z,9.70
2018-02-14T16:51:20.888Z,7.27
2018-02-14T16:53:50.316Z,7.40
2018-02-14T16:56:19.790Z,13.90
2018-02-14T16:58:49.192Z,11.13
2018-02-14T17:01:18.590Z,8.53
2018-02-14T17:03:48.033Z,7.77
2018-02-14T17:06:17.434Z,8.97
2018-02-14T17:08:46.869Z,8.67
2018-02-14T17:11:16.280Z,10.57
2018-02-14T17:13:45.696Z,9.30
2018-02-14T17:16:15.097Z,8.67
2018-02-14T17:18:44.500Z,9.47
2018-02-14T17:21:13.937Z,8.63
2018-02-14T17:23:43.357Z,8.13
2018-02-14T17:26:12.761Z,7.83
2018-02-14T17:28:42.171Z,8.87
2018-02-14T17:31:11.792Z,10.23
2018-02-14T17:33:41.208Z,8.87
2018-02-14T17:36:10.591Z,8.00
2018-02-14T17:38:40.769Z,9.93
2018-02-14T17:41:10.182Z,10.27
2018-02-14T17:43:39.597Z,8.20
2018-02-14T17:46:09.220Z,9.73
2018-02-14T17:48:38.638Z,9.87
2018-02-14T17:51:08.030Z,8.30
2018-02-14T17:53:37.432Z,8.53
2018-02-14T17:56:07.596Z,10.67
2018-02-14T17:58:36.997Z,8.77
2018-02-14T18:01:06.412Z,7.83
2018-02-14T18:03:36.020Z,7.37
2018-02-14T18:06:05.420Z,8.03
2018-02-14T18:08:35.695Z,8.93
2018-02-14T18:11:05.080Z,7.03
2018-02-14T18:13:35.240Z,7.10
2018-02-14T18:16:04.460Z,6.60
2018-02-14T18:18:33.889Z,6.63
2018-02-14T18:21:03.281Z,6.77
2018-02-14T18:23:32.684Z,6.90
2018-02-14T18:26:01.911Z,7.20
2018-02-14T18:28:31.313Z,6.97
2018-02-14T18:31:00.546Z,8.17
2018-02-14T18:33:29.936Z,7.83
2018-02-14T18:35:59.345Z,6.53
2018-02-14T18:38:28.748Z,6.37
2018-02-14T18:40:58.171Z,11.90
2018-02-14T18:43:28.360Z,7.67
2018-02-14T18:45:57.762Z,7.60
2018-02-14T18:48:27.172Z,7.03
2018-02-14T18:50:56.573Z,8.70
2018-02-14T18:53:25.971Z,7.43
2018-02-14T18:55:55.374Z,6.73
2018-02-14T18:58:24.775Z,6.83
2018-02-14T19:00:54.965Z,9.50
2018-02-14T19:03:24.548Z,6.17
2018-02-14T19:05:53.963Z,7.53
2018-02-14T19:08:23.380Z,7.50
2018-02-14T19:10:52.801Z,7.07
2018-02-14T19:13:22.205Z,7.10
2018-02-14T19:15:51.608Z,6.73
2018-02-14T19:18:21.780Z,8.10
2018-02-14T19:20:51.196Z,6.50
2018-02-14T19:23:20.408Z,8.87
2018-02-14T19:25:49.812Z,7.90
2018-02-14T19:28:19.212Z,8.13
2018-02-14T19:30:49.049Z,7.93
2018-02-14T19:33:18.441Z,7.97
2018-02-14T19:35:47.884Z,10.50
2018-02-14T19:38:17.293Z,9.67
2018-02-14T19:40:46.716Z,9.07
2018-02-14T19:43:16.330Z,9.60
2018-02-14T19:45:45.756Z,11.03
2018-02-14T19:48:15.168Z,8.80
2018-02-14T19:50:44.560Z,8.83
2018-02-14T19:53:13.979Z,10.80
2018-02-14T19:55:43.381Z,11.07
2018-02-14T19:58:14.367Z,8.60
2018-02-14T20:00:43.785Z,9.50
2018-02-14T20:03:12.899Z,8.43
2018-02-14T20:05:42.315Z,10.13
2018-02-14T20:08:11.728Z,10.20
2018-02-14T20:10:41.027Z,8.53
2018-02-14T20:13:10.411Z,10.03
2018-02-14T20:15:40.556Z,11.43
2018-02-14T20:18:09.964Z,10.97
2018-02-14T20:20:39.364Z,8.73
2018-02-14T20:23:09.519Z,11.47
2018-02-14T20:25:38.936Z,10.97
2018-02-14T20:28:08.344Z,10.07
2018-02-14T20:30:37.759Z,10.00
2018-02-14T20:33:07.151Z,11.37
2018-02-14T20:35:37.316Z,9.83
2018-02-14T20:38:06.723Z,9.80
2018-02-14T20:40:36.116Z,10.07
2018-02-14T20:43:06.301Z,11.80
2018-02-14T20:45:35.696Z,12.27
2018-02-14T20:48:05.118Z,11.90
2018-02-14T20:50:34.515Z,11.93
2018-02-14T20:53:03.931Z,9.10
2018-02-14T20:55:33.350Z,10.63
2018-02-14T20:58:02.749Z,10.33
2018-02-14T21:00:32.152Z,11.43
2018-02-14T21:03:02.332Z,11.70
2018-02-14T21:05:31.719Z,10.53
2018-02-14T21:08:01.131Z,12.33
2018-02-14T21:10:31.300Z,10.03
2018-02-14T21:13:00.696Z,9.30
2018-02-14T21:15:30.102Z,9.47
2018-02-14T21:17:59.498Z,9.97
2018-02-14T21:20:29.704Z,9.37
2018-02-14T21:22:59.450Z,11.70
2018-02-14T21:25:29.635Z,11.97
2018-02-14T21:27:59.023Z,9.83
2018-02-14T21:30:28.434Z,8.73
2018-02-14T21:32:57.841Z,10.20
2018-02-14T21:35:27.257Z,11.50
2018-02-14T21:37:56.688Z,9.90
2018-02-14T21:40:26.103Z,10.27
2018-02-14T21:42:55.515Z,11.80
2018-02-14T21:45:24.900Z,10.00
2018-02-14T21:47:54.343Z,9.80
2018-02-14T21:50:23.731Z,10.17
2018-02-14T21:52:53.142Z,9.03
2018-02-14T21:55:22.536Z,8.57
2018-02-14T21:57:51.944Z,9.63
2018-02-14T22:00:21.171Z,11.17
2018-02-14T22:02:50.567Z,11.20
2018-02-14T22:05:19.968Z,9.60
2018-02-14T22:07:50.140Z,11.67
2018-02-14T22:10:19.553Z,10.30
2018-02-14T22:12:48.959Z,10.23
2018-02-14T22:15:18.391Z,11.53
2018-02-14T22:17:47.776Z,10.80
2018-02-14T22:20:17.196Z,11.37
2018-02-14T22:22:46.321Z,10.60
2018-02-14T22:25:15.760Z,16.03
2018-02-14T22:27:45.168Z,8.47
2018-02-14T22:30:14.592Z,11.20
2018-02-14T22:32:43.991Z,10.77
2018-02-14T22:35:13.417Z,11.10
2018-02-14T22:37:42.817Z,10.90
2018-02-14T22:40:12.223Z,9.30
2018-02-14T22:42:41.643Z,9.13
2018-02-14T22:45:11.051Z,10.63
2018-02-14T22:47:40.460Z,11.53
2018-02-14T22:50:09.877Z,12.47
2018-02-14T22:52:39.276Z,10.27
2018-02-14T22:55:08.332Z,9.03
2018-02-14T22:57:37.731Z,9.90
2018-02-14T23:00:07.132Z,10.07
2018-02-14T23:02:36.270Z,10.20
2018-02-14T23:05:05.678Z,10.80
2018-02-14T23:07:34.815Z,10.33
2018-02-14T23:10:03.898Z,8.90
2018-02-14T23:12:33.021Z,9.70
2018-02-14T23:15:02.928Z,10.17
2018-02-14T23:17:32.316Z,8.77
2018-02-14T23:20:01.716Z,9.47
2018-02-14T23:22:31.107Z,9.03
2018-02-14T23:25:01.276Z,10.17
2018-02-14T23:27:30.672Z,8.80
2018-02-14T23:29:59.803Z,9.87
2018-02-14T23:32:28.938Z,9.90
2018-02-14T23:34:58.358Z,11.43
2018-02-14T23:37:27.748Z,10.07
2018-02-14T23:39:57.152Z,12.57
2018-02-14T23:42:26.577Z,11.83
2018-02-14T23:44:55.986Z,10.90
2018-02-14T23:47:25.388Z,9.73
2018-02-14T23:49:54.771Z,8.97
2018-02-14T23:52:24.955Z,11.07
2018-02-14T23:54:54.377Z,9.70
2018-02-14T23:57:23.488Z,10.17
2018-02-14T23:59:52.889Z,9.43
